ポンタ・デルガダ の空港の天気 - METARとTAF

ポンタ・デルガダ空港 ( LPPD / PDL ) - ポルトガル ポンタ・デルガダ (サンミゲル島)
飛行場実況気象(Metar)
観測時間04/25 16:00 +00 (04/25 16:00 UTC)
風向・風速北北東 3m/s
視程10km以上
天気現象
少しの雲 雲底高度 460m
気温18℃
湿度88%
気圧1007hPa
METARLPPD 251600Z 02006KT 340V070 9999 FEW015 18/16 Q1007
過去の天気等 Google飛行場航空写真 Wunderground天気予報

過去48時間のMETAR

飛行場予報(TAF)
発表時間: 4/25 11:00 +00 (4/25 11:00 UTC)
予報対象時間: 25日12時 +00 ~ 26日12時 +00
風向・風速北東 4m/s
視程10km以上
全天の4割程度の雲 雲底高度 370m
25日12時 +00 ~ 26日12時 +00 に一時的に
視程8,000m
天気現象しゅう雨
全天の8割程度の雲 雲底高度 370m
少しの積乱雲 雲底高度 850m
25日12時 +00 ~ 25日24時 +00 に 確率 30% で一時的に
風向・風速不定 8m/s 瞬間風速 13m/s
視程3,000m
天気現象雷雨
全天の8割程度の雲 雲底高度 150m
全天の4割程度の積乱雲 雲底高度 670m
26日9時 +00 ~ 26日11時 +00 に徐々に
風向・風速北東 8m/s
TAF LPPD 251100Z 2512/2612 04007KT 9999 SCT012
TEMPO 2512/2612 8000 SHRA BKN012 FEW028CB
PROB30 TEMPO 2512/2524 VRB15G25KT 3000 TSRA BKN005 SCT022CB
BECMG 2609/2611 04015KT